sensor_id;sensor_type;location;lat;lon;timestamp;P1;durP1;ratioP1;P2;durP2;ratioP2
53650;SDS011;39552;45.776;15.892;2022-10-28T00:00:45;24.42;;;14.90;;
53650;SDS011;39552;45.776;15.892;2022-10-28T00:03:11;21.25;;;12.88;;
53650;SDS011;39552;45.776;15.892;2022-10-28T00:05:38;33.13;;;13.20;;
53650;SDS011;39552;45.776;15.892;2022-10-28T00:08:05;27.40;;;13.80;;
53650;SDS011;39552;45.776;15.892;2022-10-28T00:10:33;29.60;;;13.88;;
53650;SDS011;39552;45.776;15.892;2022-10-28T00:13:00;41.53;;;15.15;;
53650;SDS011;39552;45.776;15.892;2022-10-28T00:15:27;37.75;;;14.88;;
53650;SDS011;39552;45.776;15.892;2022-10-28T00:17:53;39.15;;;14.65;;
53650;SDS011;39552;45.776;15.892;2022-10-28T00:20:20;29.15;;;14.38;;
53650;SDS011;39552;45.776;15.892;2022-10-28T00:22:47;44.97;;;13.55;;
53650;SDS011;39552;45.776;15.892;2022-10-28T00:25:14;31.42;;;15.65;;
53650;SDS011;39552;45.776;15.892;2022-10-28T00:27:42;41.75;;;15.63;;
53650;SDS011;39552;45.776;15.892;2022-10-28T00:30:09;36.45;;;15.13;;
53650;SDS011;39552;45.776;15.892;2022-10-28T00:32:36;39.30;;;15.57;;
53650;SDS011;39552;45.776;15.892;2022-10-28T00:35:03;32.42;;;15.60;;
53650;SDS011;39552;45.776;15.892;2022-10-28T00:37:30;50.38;;;16.65;;
53650;SDS011;39552;45.776;15.892;2022-10-28T00:39:57;26.63;;;15.80;;
53650;SDS011;39552;45.776;15.892;2022-10-28T00:42:24;27.30;;;14.80;;
53650;SDS011;39552;45.776;15.892;2022-10-28T00:44:53;33.60;;;10.63;;
53650;SDS011;39552;45.776;15.892;2022-10-28T00:47:34;19.90;;;9.82;;
53650;SDS011;39552;45.776;15.892;2022-10-28T00:50:10;40.60;;;10.68;;
53650;SDS011;39552;45.776;15.892;2022-10-28T00:52:40;18.17;;;9.98;;
53650;SDS011;39552;45.776;15.892;2022-10-28T00:57:37;24.10;;;10.40;;
53650;SDS011;39552;45.776;15.892;2022-10-28T01:02:36;24.63;;;10.77;;
53650;SDS011;39552;45.776;15.892;2022-10-28T01:05:10;21.17;;;10.38;;
53650;SDS011;39552;45.776;15.892;2022-10-28T01:07:39;27.80;;;10.80;;
53650;SDS011;39552;45.776;15.892;2022-10-28T01:10:06;20.60;;;10.98;;
53650;SDS011;39552;45.776;15.892;2022-10-28T01:12:37;28.02;;;12.05;;
53650;SDS011;39552;45.776;15.892;2022-10-28T01:15:14;27.98;;;11.93;;
53650;SDS011;39552;45.776;15.892;2022-10-28T01:17:52;20.13;;;10.85;;
53650;SDS011;39552;45.776;15.892;2022-10-28T01:20:33;34.47;;;11.82;;
53650;SDS011;39552;45.776;15.892;2022-10-28T01:23:19;25.60;;;13.55;;
53650;SDS011;39552;45.776;15.892;2022-10-28T01:26:05;24.83;;;14.32;;
53650;SDS011;39552;45.776;15.892;2022-10-28T01:32:09;25.58;;;13.18;;
53650;SDS011;39552;45.776;15.892;2022-10-28T01:34:44;32.30;;;12.70;;
53650;SDS011;39552;45.776;15.892;2022-10-28T01:37:18;26.73;;;12.40;;
53650;SDS011;39552;45.776;15.892;2022-10-28T01:39:57;24.88;;;13.00;;
53650;SDS011;39552;45.776;15.892;2022-10-28T01:42:31;56.65;;;14.27;;
53650;SDS011;39552;45.776;15.892;2022-10-28T01:45:06;25.45;;;11.73;;
53650;SDS011;39552;45.776;15.892;2022-10-28T01:47:41;56.35;;;13.65;;
53650;SDS011;39552;45.776;15.892;2022-10-28T01:50:14;72.47;;;13.73;;
53650;SDS011;39552;45.776;15.892;2022-10-28T01:52:46;37.67;;;12.95;;
53650;SDS011;39552;45.776;15.892;2022-10-28T01:55:16;85.70;;;13.57;;
53650;SDS011;39552;45.776;15.892;2022-10-28T01:57:48;40.88;;;12.07;;
53650;SDS011;39552;45.776;15.892;2022-10-28T02:00:17;24.88;;;12.32;;
53650;SDS011;39552;45.776;15.892;2022-10-28T02:02:46;35.03;;;11.57;;
53650;SDS011;39552;45.776;15.892;2022-10-28T02:08:06;79.03;;;12.35;;
53650;SDS011;39552;45.776;15.892;2022-10-28T02:10:57;161.80;;;13.80;;
53650;SDS011;39552;45.776;15.892;2022-10-28T02:13:34;21.08;;;11.60;;
53650;SDS011;39552;45.776;15.892;2022-10-28T02:16:09;16.73;;;11.50;;
53650;SDS011;39552;45.776;15.892;2022-10-28T02:18:47;20.00;;;10.70;;
53650;SDS011;39552;45.776;15.892;2022-10-28T02:21:23;24.70;;;12.05;;
53650;SDS011;39552;45.776;15.892;2022-10-28T02:23:58;27.60;;;11.77;;
53650;SDS011;39552;45.776;15.892;2022-10-28T02:26:34;18.33;;;10.95;;
53650;SDS011;39552;45.776;15.892;2022-10-28T02:31:33;66.97;;;11.38;;
53650;SDS011;39552;45.776;15.892;2022-10-28T02:34:05;35.92;;;11.07;;
53650;SDS011;39552;45.776;15.892;2022-10-28T02:36:38;22.60;;;10.73;;
53650;SDS011;39552;45.776;15.892;2022-10-28T02:39:09;40.75;;;11.23;;
53650;SDS011;39552;45.776;15.892;2022-10-28T02:41:37;25.05;;;10.95;;
53650;SDS011;39552;45.776;15.892;2022-10-28T02:44:10;34.45;;;10.82;;
53650;SDS011;39552;45.776;15.892;2022-10-28T02:46:42;19.00;;;9.60;;
53650;SDS011;39552;45.776;15.892;2022-10-28T02:49:14;19.55;;;9.43;;
53650;SDS011;39552;45.776;15.892;2022-10-28T02:51:41;13.68;;;9.18;;
53650;SDS011;39552;45.776;15.892;2022-10-28T02:54:11;18.25;;;9.00;;
53650;SDS011;39552;45.776;15.892;2022-10-28T02:56:41;14.13;;;8.93;;
53650;SDS011;39552;45.776;15.892;2022-10-28T02:59:13;17.80;;;8.55;;
53650;SDS011;39552;45.776;15.892;2022-10-28T03:01:40;21.55;;;8.63;;
53650;SDS011;39552;45.776;15.892;2022-10-28T03:04:07;19.92;;;8.52;;
53650;SDS011;39552;45.776;15.892;2022-10-28T03:06:35;30.05;;;9.68;;
53650;SDS011;39552;45.776;15.892;2022-10-28T03:09:01;12.45;;;8.63;;
53650;SDS011;39552;45.776;15.892;2022-10-28T03:11:28;14.00;;;8.38;;
53650;SDS011;39552;45.776;15.892;2022-10-28T03:13:55;19.40;;;7.88;;
53650;SDS011;39552;45.776;15.892;2022-10-28T03:16:22;15.70;;;7.70;;
53650;SDS011;39552;45.776;15.892;2022-10-28T03:18:48;21.60;;;7.72;;
53650;SDS011;39552;45.776;15.892;2022-10-28T03:21:15;9.82;;;7.65;;
53650;SDS011;39552;45.776;15.892;2022-10-28T03:23:43;15.10;;;7.35;;
53650;SDS011;39552;45.776;15.892;2022-10-28T03:26:10;53.25;;;7.25;;
53650;SDS011;39552;45.776;15.892;2022-10-28T03:28:37;20.58;;;7.35;;
53650;SDS011;39552;45.776;15.892;2022-10-28T03:31:04;13.60;;;7.63;;
53650;SDS011;39552;45.776;15.892;2022-10-28T03:33:31;9.38;;;7.07;;
53650;SDS011;39552;45.776;15.892;2022-10-28T03:35:57;9.95;;;7.38;;
53650;SDS011;39552;45.776;15.892;2022-10-28T03:38:24;13.90;;;6.88;;
53650;SDS011;39552;45.776;15.892;2022-10-28T03:40:52;11.90;;;6.97;;
53650;SDS011;39552;45.776;15.892;2022-10-28T03:43:19;35.60;;;7.30;;
53650;SDS011;39552;45.776;15.892;2022-10-28T03:45:46;8.88;;;6.75;;
53650;SDS011;39552;45.776;15.892;2022-10-28T03:48:13;12.20;;;7.28;;
53650;SDS011;39552;45.776;15.892;2022-10-28T03:50:39;8.70;;;7.05;;
53650;SDS011;39552;45.776;15.892;2022-10-28T03:53:06;11.18;;;6.70;;
53650;SDS011;39552;45.776;15.892;2022-10-28T03:55:33;25.88;;;7.15;;
53650;SDS011;39552;45.776;15.892;2022-10-28T03:58:01;16.65;;;6.95;;
53650;SDS011;39552;45.776;15.892;2022-10-28T04:00:29;21.85;;;7.43;;
53650;SDS011;39552;45.776;15.892;2022-10-28T04:02:56;8.93;;;7.25;;
53650;SDS011;39552;45.776;15.892;2022-10-28T04:05:22;26.42;;;6.95;;
53650;SDS011;39552;45.776;15.892;2022-10-28T04:07:49;22.58;;;6.68;;
53650;SDS011;39552;45.776;15.892;2022-10-28T04:10:16;24.20;;;7.20;;
53650;SDS011;39552;45.776;15.892;2022-10-28T04:12:42;44.65;;;7.60;;
53650;SDS011;39552;45.776;15.892;2022-10-28T04:15:11;24.10;;;6.32;;
53650;SDS011;39552;45.776;15.892;2022-10-28T04:17:37;21.13;;;6.72;;
53650;SDS011;39552;45.776;15.892;2022-10-28T04:20:04;15.38;;;5.90;;
53650;SDS011;39552;45.776;15.892;2022-10-28T04:22:32;9.80;;;6.18;;
53650;SDS011;39552;45.776;15.892;2022-10-28T04:24:58;7.47;;;5.78;;
53650;SDS011;39552;45.776;15.892;2022-10-28T04:27:25;47.25;;;7.10;;
53650;SDS011;39552;45.776;15.892;2022-10-28T04:29:52;22.80;;;6.45;;
53650;SDS011;39552;45.776;15.892;2022-10-28T04:32:20;19.15;;;6.82;;
53650;SDS011;39552;45.776;15.892;2022-10-28T04:34:46;29.42;;;6.18;;
53650;SDS011;39552;45.776;15.892;2022-10-28T04:37:13;24.77;;;5.93;;
53650;SDS011;39552;45.776;15.892;2022-10-28T04:39:45;15.18;;;6.30;;
53650;SDS011;39552;45.776;15.892;2022-10-28T04:42:12;11.65;;;5.80;;
53650;SDS011;39552;45.776;15.892;2022-10-28T04:44:39;12.70;;;5.50;;
53650;SDS011;39552;45.776;15.892;2022-10-28T04:47:06;7.78;;;5.70;;
53650;SDS011;39552;45.776;15.892;2022-10-28T04:49:34;20.73;;;5.25;;
53650;SDS011;39552;45.776;15.892;2022-10-28T04:52:04;59.72;;;6.35;;
53650;SDS011;39552;45.776;15.892;2022-10-28T04:54:30;12.82;;;5.15;;
53650;SDS011;39552;45.776;15.892;2022-10-28T04:56:57;10.00;;;5.70;;
53650;SDS011;39552;45.776;15.892;2022-10-28T04:59:24;24.35;;;6.32;;
53650;SDS011;39552;45.776;15.892;2022-10-28T05:01:50;62.08;;;6.60;;
53650;SDS011;39552;45.776;15.892;2022-10-28T05:04:17;10.95;;;5.20;;
53650;SDS011;39552;45.776;15.892;2022-10-28T05:06:46;13.25;;;5.35;;
53650;SDS011;39552;45.776;15.892;2022-10-28T05:09:12;20.75;;;5.32;;
53650;SDS011;39552;45.776;15.892;2022-10-28T05:11:39;21.70;;;5.30;;
53650;SDS011;39552;45.776;15.892;2022-10-28T05:14:06;28.15;;;6.13;;
53650;SDS011;39552;45.776;15.892;2022-10-28T05:16:33;23.17;;;4.88;;
53650;SDS011;39552;45.776;15.892;2022-10-28T05:18:59;15.27;;;5.10;;
53650;SDS011;39552;45.776;15.892;2022-10-28T05:21:26;14.05;;;4.97;;
53650;SDS011;39552;45.776;15.892;2022-10-28T05:23:54;12.75;;;4.80;;
53650;SDS011;39552;45.776;15.892;2022-10-28T05:26:21;18.75;;;5.28;;
53650;SDS011;39552;45.776;15.892;2022-10-28T05:28:48;20.25;;;5.05;;
53650;SDS011;39552;45.776;15.892;2022-10-28T05:31:15;81.25;;;6.68;;
53650;SDS011;39552;45.776;15.892;2022-10-28T05:33:41;57.50;;;5.70;;
53650;SDS011;39552;45.776;15.892;2022-10-28T05:36:08;34.75;;;5.80;;
53650;SDS011;39552;45.776;15.892;2022-10-28T05:38:35;84.40;;;6.20;;
53650;SDS011;39552;45.776;15.892;2022-10-28T05:41:03;24.75;;;6.20;;
53650;SDS011;39552;45.776;15.892;2022-10-28T05:43:30;15.65;;;5.88;;
53650;SDS011;39552;45.776;15.892;2022-10-28T05:45:57;23.27;;;6.32;;
53650;SDS011;39552;45.776;15.892;2022-10-28T05:48:23;45.70;;;5.40;;
53650;SDS011;39552;45.776;15.892;2022-10-28T05:50:50;10.15;;;5.07;;
53650;SDS011;39552;45.776;15.892;2022-10-28T05:53:17;16.30;;;4.80;;
53650;SDS011;39552;45.776;15.892;2022-10-28T05:55:43;36.53;;;5.18;;
53650;SDS011;39552;45.776;15.892;2022-10-28T06:00:41;14.38;;;4.55;;
53650;SDS011;39552;45.776;15.892;2022-10-28T06:03:09;10.65;;;4.45;;
53650;SDS011;39552;45.776;15.892;2022-10-28T06:05:37;25.65;;;4.60;;
53650;SDS011;39552;45.776;15.892;2022-10-28T06:08:05;51.47;;;5.60;;
53650;SDS011;39552;45.776;15.892;2022-10-28T06:10:32;9.15;;;4.40;;
53650;SDS011;39552;45.776;15.892;2022-10-28T06:12:59;7.10;;;4.10;;
53650;SDS011;39552;45.776;15.892;2022-10-28T06:15:27;77.55;;;6.20;;
53650;SDS011;39552;45.776;15.892;2022-10-28T06:17:54;18.13;;;5.35;;
53650;SDS011;39552;45.776;15.892;2022-10-28T06:20:21;33.28;;;5.82;;
53650;SDS011;39552;45.776;15.892;2022-10-28T06:22:48;31.52;;;5.30;;
53650;SDS011;39552;45.776;15.892;2022-10-28T06:25:15;17.25;;;5.80;;
53650;SDS011;39552;45.776;15.892;2022-10-28T06:27:42;25.17;;;5.60;;
53650;SDS011;39552;45.776;15.892;2022-10-28T06:30:09;7.07;;;5.55;;
53650;SDS011;39552;45.776;15.892;2022-10-28T06:32:37;10.52;;;6.10;;
53650;SDS011;39552;45.776;15.892;2022-10-28T06:35:04;19.42;;;6.00;;
53650;SDS011;39552;45.776;15.892;2022-10-28T06:37:31;19.23;;;6.90;;
53650;SDS011;39552;45.776;15.892;2022-10-28T06:39:58;14.52;;;7.03;;
53650;SDS011;39552;45.776;15.892;2022-10-28T06:42:25;24.23;;;7.10;;
53650;SDS011;39552;45.776;15.892;2022-10-28T06:44:51;9.88;;;6.53;;
53650;SDS011;39552;45.776;15.892;2022-10-28T06:47:19;11.45;;;6.93;;
53650;SDS011;39552;45.776;15.892;2022-10-28T06:49:47;11.27;;;6.20;;
53650;SDS011;39552;45.776;15.892;2022-10-28T06:52:14;17.30;;;7.55;;
53650;SDS011;39552;45.776;15.892;2022-10-28T06:54:41;15.00;;;7.00;;
53650;SDS011;39552;45.776;15.892;2022-10-28T06:57:07;21.17;;;7.35;;
53650;SDS011;39552;45.776;15.892;2022-10-28T06:59:34;13.82;;;7.53;;
53650;SDS011;39552;45.776;15.892;2022-10-28T07:02:01;17.08;;;7.40;;
53650;SDS011;39552;45.776;15.892;2022-10-28T07:04:35;16.42;;;7.40;;
53650;SDS011;39552;45.776;15.892;2022-10-28T07:07:03;27.10;;;7.45;;
53650;SDS011;39552;45.776;15.892;2022-10-28T07:09:29;13.70;;;7.18;;
53650;SDS011;39552;45.776;15.892;2022-10-28T07:11:56;14.07;;;7.10;;
53650;SDS011;39552;45.776;15.892;2022-10-28T07:14:29;19.52;;;7.95;;
53650;SDS011;39552;45.776;15.892;2022-10-28T07:16:56;12.35;;;7.05;;
53650;SDS011;39552;45.776;15.892;2022-10-28T07:22:10;13.05;;;7.20;;
53650;SDS011;39552;45.776;15.892;2022-10-28T07:24:37;9.35;;;6.82;;
53650;SDS011;39552;45.776;15.892;2022-10-28T07:27:04;8.20;;;7.00;;
53650;SDS011;39552;45.776;15.892;2022-10-28T07:29:31;24.70;;;7.07;;
53650;SDS011;39552;45.776;15.892;2022-10-28T07:31:57;8.15;;;6.57;;
53650;SDS011;39552;45.776;15.892;2022-10-28T07:34:24;8.80;;;5.80;;
53650;SDS011;39552;45.776;15.892;2022-10-28T07:36:53;7.05;;;6.30;;
53650;SDS011;39552;45.776;15.892;2022-10-28T07:39:21;10.27;;;7.05;;
53650;SDS011;39552;45.776;15.892;2022-10-28T07:41:48;8.77;;;6.65;;
53650;SDS011;39552;45.776;15.892;2022-10-28T07:44:19;7.65;;;6.60;;
53650;SDS011;39552;45.776;15.892;2022-10-28T07:46:46;18.83;;;7.43;;
53650;SDS011;39552;45.776;15.892;2022-10-28T07:49:12;10.43;;;6.93;;
53650;SDS011;39552;45.776;15.892;2022-10-28T07:51:39;9.82;;;7.30;;
53650;SDS011;39552;45.776;15.892;2022-10-28T07:54:06;26.90;;;7.40;;
53650;SDS011;39552;45.776;15.892;2022-10-28T07:56:34;10.65;;;7.07;;
53650;SDS011;39552;45.776;15.892;2022-10-28T07:59:00;10.80;;;7.28;;
53650;SDS011;39552;45.776;15.892;2022-10-28T08:01:27;12.77;;;7.10;;
53650;SDS011;39552;45.776;15.892;2022-10-28T08:03:54;12.88;;;6.63;;
53650;SDS011;39552;45.776;15.892;2022-10-28T08:06:21;16.35;;;6.85;;
53650;SDS011;39552;45.776;15.892;2022-10-28T08:08:48;8.40;;;7.07;;
53650;SDS011;39552;45.776;15.892;2022-10-28T08:11:19;12.45;;;6.95;;
53650;SDS011;39552;45.776;15.892;2022-10-28T08:13:48;12.10;;;7.13;;
53650;SDS011;39552;45.776;15.892;2022-10-28T08:16:15;11.70;;;7.28;;
53650;SDS011;39552;45.776;15.892;2022-10-28T08:18:42;12.68;;;6.55;;
53650;SDS011;39552;45.776;15.892;2022-10-28T08:21:09;8.35;;;7.32;;
53650;SDS011;39552;45.776;15.892;2022-10-28T08:23:37;12.48;;;7.22;;
53650;SDS011;39552;45.776;15.892;2022-10-28T08:26:04;8.32;;;7.43;;
53650;SDS011;39552;45.776;15.892;2022-10-28T08:28:31;13.10;;;7.90;;
53650;SDS011;39552;45.776;15.892;2022-10-28T08:31:02;12.50;;;7.63;;
53650;SDS011;39552;45.776;15.892;2022-10-28T08:33:34;11.95;;;7.55;;
53650;SDS011;39552;45.776;15.892;2022-10-28T08:36:01;14.38;;;8.18;;
53650;SDS011;39552;45.776;15.892;2022-10-28T08:38:27;14.00;;;8.23;;
53650;SDS011;39552;45.776;15.892;2022-10-28T08:40:56;11.10;;;8.00;;
53650;SDS011;39552;45.776;15.892;2022-10-28T08:43:34;30.92;;;8.07;;
53650;SDS011;39552;45.776;15.892;2022-10-28T08:49:12;10.88;;;6.88;;
53650;SDS011;39552;45.776;15.892;2022-10-28T08:51:44;14.38;;;7.53;;
53650;SDS011;39552;45.776;15.892;2022-10-28T08:54:20;12.23;;;7.30;;
53650;SDS011;39552;45.776;15.892;2022-10-28T08:56:51;6.50;;;5.13;;
53650;SDS011;39552;45.776;15.892;2022-10-28T08:59:18;8.30;;;5.60;;
53650;SDS011;39552;45.776;15.892;2022-10-28T09:01:55;7.90;;;5.00;;
53650;SDS011;39552;45.776;15.892;2022-10-28T09:04:25;7.57;;;5.15;;
53650;SDS011;39552;45.776;15.892;2022-10-28T09:07:10;8.13;;;5.85;;
53650;SDS011;39552;45.776;15.892;2022-10-28T09:09:41;9.02;;;5.50;;
53650;SDS011;39552;45.776;15.892;2022-10-28T09:12:11;9.90;;;5.85;;
53650;SDS011;39552;45.776;15.892;2022-10-28T09:14:52;6.38;;;5.38;;
53650;SDS011;39552;45.776;15.892;2022-10-28T09:17:41;11.73;;;5.90;;
53650;SDS011;39552;45.776;15.892;2022-10-28T09:20:18;13.45;;;5.82;;
53650;SDS011;39552;45.776;15.892;2022-10-28T09:22:50;21.83;;;6.60;;
53650;SDS011;39552;45.776;15.892;2022-10-28T09:25:25;16.48;;;5.95;;
53650;SDS011;39552;45.776;15.892;2022-10-28T09:28:20;8.57;;;5.95;;
53650;SDS011;39552;45.776;15.892;2022-10-28T09:30:57;7.43;;;5.60;;
53650;SDS011;39552;45.776;15.892;2022-10-28T09:33:39;10.65;;;5.38;;
53650;SDS011;39552;45.776;15.892;2022-10-28T09:36:17;6.85;;;5.82;;
53650;SDS011;39552;45.776;15.892;2022-10-28T09:38:59;5.35;;;4.85;;
53650;SDS011;39552;45.776;15.892;2022-10-28T09:41:30;7.20;;;5.30;;
53650;SDS011;39552;45.776;15.892;2022-10-28T09:44:05;22.00;;;5.80;;
53650;SDS011;39552;45.776;15.892;2022-10-28T09:46:40;7.15;;;5.85;;
53650;SDS011;39552;45.776;15.892;2022-10-28T09:49:15;6.68;;;5.97;;
53650;SDS011;39552;45.776;15.892;2022-10-28T09:51:46;7.43;;;5.68;;
53650;SDS011;39552;45.776;15.892;2022-10-28T09:54:20;9.45;;;6.15;;
53650;SDS011;39552;45.776;15.892;2022-10-28T09:56:57;7.78;;;6.20;;
53650;SDS011;39552;45.776;15.892;2022-10-28T09:59:35;15.25;;;6.85;;
53650;SDS011;39552;45.776;15.892;2022-10-28T10:02:23;14.65;;;6.72;;
53650;SDS011;39552;45.776;15.892;2022-10-28T10:05:09;13.40;;;6.32;;
53650;SDS011;39552;45.776;15.892;2022-10-28T10:07:43;8.80;;;6.63;;
53650;SDS011;39552;45.776;15.892;2022-10-28T10:10:20;8.82;;;7.65;;
53650;SDS011;39552;45.776;15.892;2022-10-28T10:12:52;11.77;;;8.88;;
53650;SDS011;39552;45.776;15.892;2022-10-28T10:15:28;9.20;;;7.60;;
53650;SDS011;39552;45.776;15.892;2022-10-28T10:18:03;8.88;;;7.80;;
53650;SDS011;39552;45.776;15.892;2022-10-28T10:23:30;7.65;;;6.90;;
53650;SDS011;39552;45.776;15.892;2022-10-28T10:25:59;8.00;;;7.15;;
53650;SDS011;39552;45.776;15.892;2022-10-28T10:31:29;9.70;;;7.30;;
53650;SDS011;39552;45.776;15.892;2022-10-28T10:33:59;12.10;;;7.90;;
53650;SDS011;39552;45.776;15.892;2022-10-28T10:36:35;17.53;;;7.10;;
53650;SDS011;39552;45.776;15.892;2022-10-28T10:39:02;10.65;;;8.40;;
53650;SDS011;39552;45.776;15.892;2022-10-28T10:41:45;10.00;;;8.20;;
53650;SDS011;39552;45.776;15.892;2022-10-28T10:44:23;10.93;;;7.82;;
53650;SDS011;39552;45.776;15.892;2022-10-28T10:47:15;12.68;;;7.97;;
53650;SDS011;39552;45.776;15.892;2022-10-28T10:49:47;10.77;;;8.02;;
53650;SDS011;39552;45.776;15.892;2022-10-28T10:52:31;11.27;;;8.75;;
53650;SDS011;39552;45.776;15.892;2022-10-28T10:55:13;9.30;;;8.23;;
53650;SDS011;39552;45.776;15.892;2022-10-28T10:57:58;10.95;;;9.18;;
53650;SDS011;39552;45.776;15.892;2022-10-28T11:00:30;8.48;;;7.38;;
53650;SDS011;39552;45.776;15.892;2022-10-28T11:03:11;8.98;;;6.40;;
53650;SDS011;39552;45.776;15.892;2022-10-28T11:05:54;8.23;;;6.47;;
53650;SDS011;39552;45.776;15.892;2022-10-28T11:09:01;10.23;;;6.78;;
53650;SDS011;39552;45.776;15.892;2022-10-28T11:11:31;7.20;;;6.50;;
53650;SDS011;39552;45.776;15.892;2022-10-28T11:14:04;8.45;;;6.93;;
53650;SDS011;39552;45.776;15.892;2022-10-28T11:17:08;7.93;;;6.53;;
53650;SDS011;39552;45.776;15.892;2022-10-28T11:19:56;8.43;;;6.38;;
53650;SDS011;39552;45.776;15.892;2022-10-28T11:23:06;8.32;;;7.22;;
53650;SDS011;39552;45.776;15.892;2022-10-28T11:28:54;8.48;;;7.10;;
53650;SDS011;39552;45.776;15.892;2022-10-28T11:32:09;11.23;;;7.15;;
53650;SDS011;39552;45.776;15.892;2022-10-28T11:38:20;7.63;;;6.82;;
53650;SDS011;39552;45.776;15.892;2022-10-28T11:41:23;10.10;;;7.13;;
53650;SDS011;39552;45.776;15.892;2022-10-28T11:44:10;9.98;;;8.15;;
53650;SDS011;39552;45.776;15.892;2022-10-28T11:46:55;10.88;;;8.20;;
53650;SDS011;39552;45.776;15.892;2022-10-28T11:49:35;17.48;;;8.52;;
53650;SDS011;39552;45.776;15.892;2022-10-28T11:52:19;14.60;;;9.35;;
53650;SDS011;39552;45.776;15.892;2022-10-28T11:55:13;14.55;;;8.55;;
53650;SDS011;39552;45.776;15.892;2022-10-28T12:00:42;9.73;;;7.97;;
53650;SDS011;39552;45.776;15.892;2022-10-28T12:06:31;11.15;;;6.68;;
53650;SDS011;39552;45.776;15.892;2022-10-28T12:09:18;12.48;;;6.28;;
53650;SDS011;39552;45.776;15.892;2022-10-28T12:12:00;9.90;;;6.78;;
53650;SDS011;39552;45.776;15.892;2022-10-28T12:14:41;6.93;;;6.22;;
53650;SDS011;39552;45.776;15.892;2022-10-28T12:17:22;9.95;;;6.80;;
53650;SDS011;39552;45.776;15.892;2022-10-28T12:20:17;7.93;;;7.13;;
53650;SDS011;39552;45.776;15.892;2022-10-28T12:22:59;10.77;;;7.47;;
53650;SDS011;39552;45.776;15.892;2022-10-28T12:25:34;10.00;;;7.68;;
53650;SDS011;39552;45.776;15.892;2022-10-28T12:28:15;18.00;;;7.80;;
53650;SDS011;39552;45.776;15.892;2022-10-28T12:31:01;8.57;;;7.35;;
53650;SDS011;39552;45.776;15.892;2022-10-28T12:33:47;15.13;;;7.90;;
53650;SDS011;39552;45.776;15.892;2022-10-28T12:36:39;10.52;;;8.40;;
53650;SDS011;39552;45.776;15.892;2022-10-28T12:39:14;9.32;;;8.27;;
53650;SDS011;39552;45.776;15.892;2022-10-28T12:41:51;15.25;;;10.00;;
53650;SDS011;39552;45.776;15.892;2022-10-28T12:44:23;18.17;;;10.82;;
53650;SDS011;39552;45.776;15.892;2022-10-28T12:47:05;16.45;;;11.25;;
53650;SDS011;39552;45.776;15.892;2022-10-28T12:49:46;17.50;;;9.95;;
53650;SDS011;39552;45.776;15.892;2022-10-28T12:52:25;12.45;;;8.75;;
53650;SDS011;39552;45.776;15.892;2022-10-28T12:55:21;14.35;;;8.60;;
53650;SDS011;39552;45.776;15.892;2022-10-28T12:57:56;11.98;;;8.88;;
53650;SDS011;39552;45.776;15.892;2022-10-28T13:03:00;14.07;;;9.00;;
53650;SDS011;39552;45.776;15.892;2022-10-28T13:05:30;12.52;;;10.23;;
53650;SDS011;39552;45.776;15.892;2022-10-28T13:08:23;14.80;;;9.73;;
53650;SDS011;39552;45.776;15.892;2022-10-28T13:14:22;13.32;;;9.60;;
53650;SDS011;39552;45.776;15.892;2022-10-28T13:17:10;15.95;;;10.32;;
53650;SDS011;39552;45.776;15.892;2022-10-28T13:20:05;17.50;;;9.55;;
53650;SDS011;39552;45.776;15.892;2022-10-28T13:22:58;14.98;;;9.65;;
53650;SDS011;39552;45.776;15.892;2022-10-28T13:25:37;19.40;;;11.15;;
53650;SDS011;39552;45.776;15.892;2022-10-28T13:28:16;18.85;;;11.85;;
53650;SDS011;39552;45.776;15.892;2022-10-28T13:30:53;15.70;;;11.98;;
53650;SDS011;39552;45.776;15.892;2022-10-28T13:33:32;16.70;;;13.15;;
53650;SDS011;39552;45.776;15.892;2022-10-28T13:36:16;19.38;;;11.32;;
53650;SDS011;39552;45.776;15.892;2022-10-28T13:38:54;17.90;;;10.57;;
53650;SDS011;39552;45.776;15.892;2022-10-28T13:41:26;16.77;;;12.15;;
53650;SDS011;39552;45.776;15.892;2022-10-28T13:56:39;19.02;;;11.52;;
53650;SDS011;39552;45.776;15.892;2022-10-28T13:59:19;14.10;;;11.20;;
53650;SDS011;39552;45.776;15.892;2022-10-28T14:02:34;22.20;;;13.00;;
53650;SDS011;39552;45.776;15.892;2022-10-28T14:05:05;23.00;;;12.82;;
53650;SDS011;39552;45.776;15.892;2022-10-28T14:07:49;16.17;;;12.23;;
53650;SDS011;39552;45.776;15.892;2022-10-28T14:10:22;18.95;;;12.23;;
53650;SDS011;39552;45.776;15.892;2022-10-28T14:12:57;21.08;;;12.30;;
53650;SDS011;39552;45.776;15.892;2022-10-28T14:15:35;27.60;;;13.52;;
53650;SDS011;39552;45.776;15.892;2022-10-28T14:18:18;30.08;;;13.60;;
53650;SDS011;39552;45.776;15.892;2022-10-28T14:21:08;27.55;;;14.48;;
53650;SDS011;39552;45.776;15.892;2022-10-28T14:30:09;22.83;;;17.02;;
53650;SDS011;39552;45.776;15.892;2022-10-28T14:32:39;20.90;;;15.32;;
53650;SDS011;39552;45.776;15.892;2022-10-28T14:35:18;22.88;;;16.20;;
53650;SDS011;39552;45.776;15.892;2022-10-28T14:38:04;23.05;;;15.88;;
53650;SDS011;39552;45.776;15.892;2022-10-28T14:40:44;27.60;;;16.63;;
53650;SDS011;39552;45.776;15.892;2022-10-28T14:43:27;31.17;;;18.33;;
53650;SDS011;39552;45.776;15.892;2022-10-28T14:49:11;25.83;;;18.88;;
53650;SDS011;39552;45.776;15.892;2022-10-28T14:51:42;25.25;;;17.52;;
53650;SDS011;39552;45.776;15.892;2022-10-28T14:54:12;23.85;;;17.35;;
53650;SDS011;39552;45.776;15.892;2022-10-28T14:56:42;24.60;;;16.92;;
53650;SDS011;39552;45.776;15.892;2022-10-28T14:59:21;23.08;;;16.08;;
53650;SDS011;39552;45.776;15.892;2022-10-28T15:02:06;27.05;;;17.15;;
53650;SDS011;39552;45.776;15.892;2022-10-28T15:04:37;39.35;;;19.92;;
53650;SDS011;39552;45.776;15.892;2022-10-28T15:07:07;36.88;;;21.00;;
53650;SDS011;39552;45.776;15.892;2022-10-28T15:09:37;32.70;;;21.25;;
53650;SDS011;39552;45.776;15.892;2022-10-28T15:12:05;27.80;;;21.02;;
53650;SDS011;39552;45.776;15.892;2022-10-28T15:14:35;32.75;;;21.20;;
53650;SDS011;39552;45.776;15.892;2022-10-28T15:17:15;33.53;;;19.60;;
53650;SDS011;39552;45.776;15.892;2022-10-28T15:19:44;30.25;;;19.80;;
53650;SDS011;39552;45.776;15.892;2022-10-28T15:22:16;36.10;;;21.48;;
53650;SDS011;39552;45.776;15.892;2022-10-28T15:24:51;30.25;;;21.23;;
53650;SDS011;39552;45.776;15.892;2022-10-28T15:27:20;34.90;;;22.48;;
53650;SDS011;39552;45.776;15.892;2022-10-28T15:29:49;40.28;;;24.52;;
53650;SDS011;39552;45.776;15.892;2022-10-28T15:32:25;44.92;;;24.33;;
53650;SDS011;39552;45.776;15.892;2022-10-28T15:34:54;33.75;;;22.80;;
53650;SDS011;39552;45.776;15.892;2022-10-28T15:37:21;39.33;;;24.38;;
53650;SDS011;39552;45.776;15.892;2022-10-28T15:39:49;35.63;;;24.45;;
53650;SDS011;39552;45.776;15.892;2022-10-28T15:42:28;40.13;;;24.90;;
53650;SDS011;39552;45.776;15.892;2022-10-28T15:44:56;37.95;;;22.85;;
53650;SDS011;39552;45.776;15.892;2022-10-28T15:47:26;44.53;;;26.27;;
53650;SDS011;39552;45.776;15.892;2022-10-28T15:49:59;34.53;;;25.10;;
53650;SDS011;39552;45.776;15.892;2022-10-28T15:52:31;35.13;;;26.15;;
53650;SDS011;39552;45.776;15.892;2022-10-28T15:55:27;35.15;;;24.77;;
53650;SDS011;39552;45.776;15.892;2022-10-28T15:58:34;36.30;;;24.48;;
53650;SDS011;39552;45.776;15.892;2022-10-28T16:01:06;60.47;;;26.20;;
53650;SDS011;39552;45.776;15.892;2022-10-28T16:03:43;60.42;;;26.90;;